< Typhoon 196715 1967 Season Typhoon 196717 >
Typhoon 196716 (IRIS)
General InformationTrack Information on Google Maps || Disaster Info.ResourceGoogle EarthGE AnimationAtom FeedGeoJSON
Detalied Best Track (Time Zone = UTC)
Year Month Day Hour Lat. Long. Pressure (hPa) Wind (kt) Class Image Chart
1967 8 10 06 10.0 145.2 1008 0 2 -- Chart
1967 8 10 12 10.2 144.1 1008 0 2 -- Chart
1967 8 10 18 10.9 142.9 1008 0 2 -- Chart
1967 8 11 00 11.4 141.9 1008 0 2 -- Chart
1967 8 11 06 11.9 140.8 1004 0 2 -- Chart
1967 8 11 12 12.6 139.2 1006 0 2 -- Chart
1967 8 11 18 13.2 138.1 1006 0 2 -- Chart
1967 8 12 00 13.5 136.8 1006 0 2 -- Chart
1967 8 12 06 13.6 135.0 1006 0 2 -- Chart
1967 8 12 12 14.2 133.0 1006 0 2 -- Chart
1967 8 12 18 14.4 130.3 1006 0 2 -- Chart
1967 8 13 00 14.9 128.0 1006 0 2 -- Chart
1967 8 13 06 15.3 126.5 1006 0 2 -- Chart
1967 8 13 12 15.8 125.0 1006 0 2 -- Chart
1967 8 13 18 16.6 123.6 1004 0 2 -- Chart
1967 8 14 00 17.4 122.8 1002 0 2 -- Chart
1967 8 14 06 18.2 121.8 1002 0 2 -- Chart
1967 8 14 12 18.9 120.0 1000 0 2 -- Chart
1967 8 14 18 19.3 118.2 998 0 2 -- Chart
1967 8 15 00 19.8 116.5 994 0 9 -- Chart
1967 8 15 06 20.2 114.9 994 0 9 -- Chart
1967 8 15 12 20.6 113.2 994 0 9 -- Chart
1967 8 15 18 20.9 112.5 994 0 9 -- Chart
1967 8 16 00 21.0 112.1 994 0 9 -- Chart
1967 8 16 06 21.2 111.6 994 0 9 -- Chart
1967 8 16 12 21.5 111.2 994 0 9 -- Chart
1967 8 16 18 21.7 110.7 994 0 2 -- Chart
1967 8 17 00 21.9 110.1 996 0 2 -- Chart
1967 8 17 06 22.2 109.5 996 0 2 -- Chart
1967 8 17 12 22.3 108.5 998 0 2 -- Chart
1967 8 17 18 22.5 107.6 999 0 2 -- Chart
1967 8 18 00 22.7 106.9 1000 0 2 -- Chart
1967 8 18 06 22.9 106.1 1000 0 2 -- Chart
1967 8 18 12 23.0 105.3 1000 0 2 -- Chart
Japan Meteorological Agency Best Track Data | Correction Date : 1989-06-01
< Typhoon 196715 1967 Season Typhoon 196717 >

Help